sensor_id;sensor_type;location;lat;lon;timestamp;pressure;altitude;pressure_sealevel;temperature;humidity
8318;BME280;4196;48.926;8.964;2022-10-28T00:00:04;99780.38;;;10.67;100.00
8318;BME280;4196;48.926;8.964;2022-10-28T00:02:50;99781.19;;;10.58;100.00
8318;BME280;4196;48.926;8.964;2022-10-28T00:05:37;99761.16;;;10.38;100.00
8318;BME280;4196;48.926;8.964;2022-10-28T00:08:24;99757.75;;;10.43;100.00
8318;BME280;4196;48.926;8.964;2022-10-28T00:11:14;99771.75;;;10.66;100.00
8318;BME280;4196;48.926;8.964;2022-10-28T00:14:03;99764.81;;;10.62;100.00
8318;BME280;4196;48.926;8.964;2022-10-28T00:16:50;99774.28;;;10.57;100.00
8318;BME280;4196;48.926;8.964;2022-10-28T00:19:37;99775.94;;;10.52;100.00
8318;BME280;4196;48.926;8.964;2022-10-28T00:22:23;99757.75;;;10.43;100.00
8318;BME280;4196;48.926;8.964;2022-10-28T00:25:10;99763.81;;;10.46;100.00
8318;BME280;4196;48.926;8.964;2022-10-28T00:27:56;99746.44;;;10.34;100.00
8318;BME280;4196;48.926;8.964;2022-10-28T00:30:42;99761.16;;;10.40;100.00
8318;BME280;4196;48.926;8.964;2022-10-28T00:33:29;99771.53;;;10.40;100.00
8318;BME280;4196;48.926;8.964;2022-10-28T00:36:22;99773.25;;;10.39;100.00
8318;BME280;4196;48.926;8.964;2022-10-28T00:39:14;99754.13;;;10.25;100.00
8318;BME280;4196;48.926;8.964;2022-10-28T00:42:01;99767.13;;;10.34;100.00
8318;BME280;4196;48.926;8.964;2022-10-28T00:44:53;99774.03;;;10.32;100.00
8318;BME280;4196;48.926;8.964;2022-10-28T00:47:50;99773.13;;;10.30;100.00
8318;BME280;4196;48.926;8.964;2022-10-28T00:50:48;99756.56;;;10.16;100.00
8318;BME280;4196;48.926;8.964;2022-10-28T00:53:40;99779.06;;;10.23;100.00
8318;BME280;4196;48.926;8.964;2022-10-28T00:56:30;99776.41;;;10.15;100.00
8318;BME280;4196;48.926;8.964;2022-10-28T00:59:32;99770.31;;;10.10;100.00
8318;BME280;4196;48.926;8.964;2022-10-28T01:02:19;99742.53;;;9.92;100.00
8318;BME280;4196;48.926;8.964;2022-10-28T01:05:07;99762.50;;;10.04;100.00
8318;BME280;4196;48.926;8.964;2022-10-28T01:07:59;99765.16;;;10.12;100.00
8318;BME280;4196;48.926;8.964;2022-10-28T01:17:08;99775.63;;;10.21;100.00
8318;BME280;4196;48.926;8.964;2022-10-28T01:23:27;99776.41;;;10.14;100.00
8318;BME280;4196;48.926;8.964;2022-10-28T01:33:00;99761.63;;;10.04;100.00
8318;BME280;4196;48.926;8.964;2022-10-28T01:35:56;99732.16;;;9.89;100.00
8318;BME280;4196;48.926;8.964;2022-10-28T01:41:50;99752.06;;;9.95;100.00
8318;BME280;4196;48.926;8.964;2022-10-28T01:44:53;99765.81;;;9.91;100.00
8318;BME280;4196;48.926;8.964;2022-10-28T01:50:47;99743.22;;;9.76;100.00
8318;BME280;4196;48.926;8.964;2022-10-28T01:53:38;99777.03;;;9.91;100.00
8318;BME280;4196;48.926;8.964;2022-10-28T01:56:30;99738.91;;;9.78;100.00
8318;BME280;4196;48.926;8.964;2022-10-28T01:59:22;99769.22;;;9.88;100.00
8318;BME280;4196;48.926;8.964;2022-10-28T02:02:10;99744.09;;;9.78;100.00
8318;BME280;4196;48.926;8.964;2022-10-28T02:08:49;99762.31;;;9.89;100.00
8318;BME280;4196;48.926;8.964;2022-10-28T02:11:42;99762.38;;;9.93;100.00
8318;BME280;4196;48.926;8.964;2022-10-28T02:21:03;99739.88;;;9.83;100.00
8318;BME280;4196;48.926;8.964;2022-10-28T02:27:12;99722.59;;;9.82;100.00
8318;BME280;4196;48.926;8.964;2022-10-28T02:30:17;99711.34;;;9.76;100.00
8318;BME280;4196;48.926;8.964;2022-10-28T02:33:10;99723.38;;;9.75;100.00
8318;BME280;4196;48.926;8.964;2022-10-28T02:36:02;99736.38;;;9.80;100.00
8318;BME280;4196;48.926;8.964;2022-10-28T02:38:53;99728.53;;;9.75;100.00
8318;BME280;4196;48.926;8.964;2022-10-28T02:44:37;99721.84;;;9.91;100.00
8318;BME280;4196;48.926;8.964;2022-10-28T02:47:30;99739.19;;;10.04;100.00
8318;BME280;4196;48.926;8.964;2022-10-28T02:50:19;99605.75;;;9.38;100.00
8318;BME280;4196;48.926;8.964;2022-10-28T02:53:15;99736.75;;;10.16;100.00
8318;BME280;4196;48.926;8.964;2022-10-28T02:56:05;99726.47;;;10.24;100.00
8318;BME280;4196;48.926;8.964;2022-10-28T02:58:53;99729.06;;;10.24;100.00
8318;BME280;4196;48.926;8.964;2022-10-28T03:01:39;99746.50;;;10.40;100.00
8318;BME280;4196;48.926;8.964;2022-10-28T03:04:26;99724.81;;;10.28;100.00
8318;BME280;4196;48.926;8.964;2022-10-28T03:07:12;99717.06;;;10.29;100.00
8318;BME280;4196;48.926;8.964;2022-10-28T03:09:59;99723.19;;;10.39;100.00
8318;BME280;4196;48.926;8.964;2022-10-28T03:12:45;99747.41;;;10.44;100.00
8318;BME280;4196;48.926;8.964;2022-10-28T03:15:32;99715.38;;;10.31;100.00
8318;BME280;4196;48.926;8.964;2022-10-28T03:18:18;99746.66;;;10.59;100.00
8318;BME280;4196;48.926;8.964;2022-10-28T03:21:04;99721.53;;;10.47;100.00
8318;BME280;4196;48.926;8.964;2022-10-28T03:23:50;99708.44;;;10.30;100.00
8318;BME280;4196;48.926;8.964;2022-10-28T03:26:37;99750.13;;;10.61;100.00
8318;BME280;4196;48.926;8.964;2022-10-28T03:29:23;99722.38;;;10.43;100.00
8318;BME280;4196;48.926;8.964;2022-10-28T03:32:09;99735.38;;;10.52;100.00
8318;BME280;4196;48.926;8.964;2022-10-28T03:34:56;99718.94;;;10.46;100.00
8318;BME280;4196;48.926;8.964;2022-10-28T03:37:43;99733.69;;;10.56;100.00
8318;BME280;4196;48.926;8.964;2022-10-28T03:40:29;99716.44;;;10.58;100.00
8318;BME280;4196;48.926;8.964;2022-10-28T03:43:16;99681.00;;;10.51;100.00
8318;BME280;4196;48.926;8.964;2022-10-28T03:46:03;99648.00;;;10.25;100.00
8318;BME280;4196;48.926;8.964;2022-10-28T03:48:49;99688.72;;;10.43;100.00
8318;BME280;4196;48.926;8.964;2022-10-28T03:51:35;99705.28;;;10.65;100.00
8318;BME280;4196;48.926;8.964;2022-10-28T03:54:22;99690.59;;;10.67;100.00
8318;BME280;4196;48.926;8.964;2022-10-28T03:57:08;99704.38;;;10.61;100.00
8318;BME280;4196;48.926;8.964;2022-10-28T03:59:54;99681.06;;;10.60;100.00
8318;BME280;4196;48.926;8.964;2022-10-28T04:02:41;99694.94;;;10.68;100.00
8318;BME280;4196;48.926;8.964;2022-10-28T04:05:27;99679.31;;;10.59;100.00
8318;BME280;4196;48.926;8.964;2022-10-28T04:08:17;99701.00;;;10.70;100.00
8318;BME280;4196;48.926;8.964;2022-10-28T04:11:04;99693.19;;;10.67;100.00
8318;BME280;4196;48.926;8.964;2022-10-28T04:13:50;99668.13;;;10.63;100.00
8318;BME280;4196;48.926;8.964;2022-10-28T04:16:37;99682.03;;;10.76;100.00
8318;BME280;4196;48.926;8.964;2022-10-28T04:19:23;99675.06;;;10.67;100.00
8318;BME280;4196;48.926;8.964;2022-10-28T04:22:09;99693.25;;;10.75;100.00
8318;BME280;4196;48.926;8.964;2022-10-28T04:24:56;99682.94;;;10.79;100.00
8318;BME280;4196;48.926;8.964;2022-10-28T04:27:43;99696.84;;;10.94;100.00
8318;BME280;4196;48.926;8.964;2022-10-28T04:30:30;99669.94;;;10.72;100.00
8318;BME280;4196;48.926;8.964;2022-10-28T04:33:16;99690.69;;;10.81;100.00
8318;BME280;4196;48.926;8.964;2022-10-28T04:36:03;99674.28;;;10.80;100.00
8318;BME280;4196;48.926;8.964;2022-10-28T04:38:49;99686.44;;;10.87;100.00
8318;BME280;4196;48.926;8.964;2022-10-28T04:41:37;99691.59;;;10.89;100.00
8318;BME280;4196;48.926;8.964;2022-10-28T04:44:23;99693.41;;;10.98;100.00
8318;BME280;4196;48.926;8.964;2022-10-28T04:47:09;99682.94;;;10.82;100.00
8318;BME280;4196;48.926;8.964;2022-10-28T04:49:56;99683.88;;;10.95;100.00
8318;BME280;4196;48.926;8.964;2022-10-28T04:52:42;99674.38;;;10.96;100.00
8318;BME280;4196;48.926;8.964;2022-10-28T04:55:28;99679.63;;;11.05;100.00
8318;BME280;4196;48.926;8.964;2022-10-28T04:58:15;99645.91;;;11.02;100.00
8318;BME280;4196;48.926;8.964;2022-10-28T05:01:06;99653.72;;;11.05;100.00
8318;BME280;4196;48.926;8.964;2022-10-28T05:03:52;99637.19;;;10.86;100.00
8318;BME280;4196;48.926;8.964;2022-10-28T05:06:39;99644.13;;;10.88;100.00
8318;BME280;4196;48.926;8.964;2022-10-28T05:09:25;99656.28;;;10.97;100.00
8318;BME280;4196;48.926;8.964;2022-10-28T05:12:11;99622.50;;;10.83;100.00
8318;BME280;4196;48.926;8.964;2022-10-28T05:14:58;99643.25;;;10.86;100.00
8318;BME280;4196;48.926;8.964;2022-10-28T05:17:45;99639.81;;;10.87;100.00
8318;BME280;4196;48.926;8.964;2022-10-28T05:20:31;99620.78;;;10.85;100.00
8318;BME280;4196;48.926;8.964;2022-10-28T05:23:21;99654.53;;;10.99;100.00
8318;BME280;4196;48.926;8.964;2022-10-28T05:26:13;99662.25;;;10.87;100.00
8318;BME280;4196;48.926;8.964;2022-10-28T05:29:00;99624.09;;;10.57;100.00
8318;BME280;4196;48.926;8.964;2022-10-28T05:31:46;99652.63;;;10.64;100.00
8318;BME280;4196;48.926;8.964;2022-10-28T05:34:33;99650.78;;;10.51;100.00
8318;BME280;4196;48.926;8.964;2022-10-28T05:37:19;99668.09;;;10.58;100.00
8318;BME280;4196;48.926;8.964;2022-10-28T05:40:06;99666.41;;;10.63;100.00
8318;BME280;4196;48.926;8.964;2022-10-28T05:42:52;99643.84;;;10.49;100.00
8318;BME280;4196;48.926;8.964;2022-10-28T05:45:40;99648.31;;;10.65;100.00
8318;BME280;4196;48.926;8.964;2022-10-28T05:48:26;99657.06;;;10.88;100.00
8318;BME280;4196;48.926;8.964;2022-10-28T05:51:13;99665.66;;;10.81;100.00
8318;BME280;4196;48.926;8.964;2022-10-28T05:53:59;99651.78;;;10.69;100.00
8318;BME280;4196;48.926;8.964;2022-10-28T05:56:45;99648.31;;;10.68;100.00
8318;BME280;4196;48.926;8.964;2022-10-28T05:59:32;99658.69;;;10.68;100.00
8318;BME280;4196;48.926;8.964;2022-10-28T06:02:18;99641.34;;;10.58;100.00
8318;BME280;4196;48.926;8.964;2022-10-28T06:05:05;99622.25;;;10.44;100.00
8318;BME280;4196;48.926;8.964;2022-10-28T06:07:51;99642.16;;;10.52;100.00
8318;BME280;4196;48.926;8.964;2022-10-28T06:10:38;99659.44;;;10.55;100.00
8318;BME280;4196;48.926;8.964;2022-10-28T06:13:25;99627.44;;;10.44;100.00
8318;BME280;4196;48.926;8.964;2022-10-28T06:16:11;99652.50;;;10.52;100.00
8318;BME280;4196;48.926;8.964;2022-10-28T06:18:58;99639.63;;;10.57;100.00
8318;BME280;4196;48.926;8.964;2022-10-28T06:21:44;99658.75;;;10.80;100.00
8318;BME280;4196;48.926;8.964;2022-10-28T06:24:30;99609.34;;;10.53;100.00
8318;BME280;4196;48.926;8.964;2022-10-28T06:27:17;99641.47;;;10.76;100.00
8318;BME280;4196;48.926;8.964;2022-10-28T06:30:03;99646.66;;;10.81;100.00
8318;BME280;4196;48.926;8.964;2022-10-28T06:32:50;99669.25;;;11.02;100.00
8318;BME280;4196;48.926;8.964;2022-10-28T06:35:36;99671.81;;;10.97;100.00
8318;BME280;4196;48.926;8.964;2022-10-28T06:38:24;99656.19;;;10.88;100.00
8318;BME280;4196;48.926;8.964;2022-10-28T06:41:10;99634.59;;;10.86;100.00
8318;BME280;4196;48.926;8.964;2022-10-28T06:43:56;99662.38;;;11.13;100.00
8318;BME280;4196;48.926;8.964;2022-10-28T06:46:43;99688.41;;;11.31;100.00
8318;BME280;4196;48.926;8.964;2022-10-28T06:49:29;99713.56;;;11.57;100.00
8318;BME280;4196;48.926;8.964;2022-10-28T06:52:16;99716.19;;;11.61;100.00
8318;BME280;4196;48.926;8.964;2022-10-28T06:55:02;99685.00;;;11.48;100.00
8318;BME280;4196;48.926;8.964;2022-10-28T06:57:48;99698.91;;;11.65;100.00
8318;BME280;4196;48.926;8.964;2022-10-28T07:00:34;99704.09;;;11.74;100.00
8318;BME280;4196;48.926;8.964;2022-10-28T07:03:21;99687.66;;;11.65;100.00
8318;BME280;4196;48.926;8.964;2022-10-28T07:06:07;99703.34;;;11.97;100.00
8318;BME280;4196;48.926;8.964;2022-10-28T07:08:54;99718.03;;;12.04;100.00
8318;BME280;4196;48.926;8.964;2022-10-28T07:11:41;99686.00;;;11.88;100.00
8318;BME280;4196;48.926;8.964;2022-10-28T07:14:30;99712.00;;;12.05;100.00
8318;BME280;4196;48.926;8.964;2022-10-28T07:17:17;99718.06;;;12.08;100.00
8318;BME280;4196;48.926;8.964;2022-10-28T07:20:03;99703.38;;;12.04;100.00
8318;BME280;4196;48.926;8.964;2022-10-28T07:22:58;99718.97;;;12.38;100.00
8318;BME280;4196;48.926;8.964;2022-10-28T07:25:53;99726.75;;;12.47;100.00
8318;BME280;4196;48.926;8.964;2022-10-28T07:28:40;99725.03;;;12.62;100.00
8318;BME280;4196;48.926;8.964;2022-10-28T07:31:27;99716.38;;;12.52;100.00
8318;BME280;4196;48.926;8.964;2022-10-28T07:34:14;99731.97;;;12.61;100.00
8318;BME280;4196;48.926;8.964;2022-10-28T07:37:00;99731.94;;;12.73;100.00
8318;BME280;4196;48.926;8.964;2022-10-28T07:39:47;99722.44;;;12.68;100.00
8318;BME280;4196;48.926;8.964;2022-10-28T07:42:33;99725.91;;;12.74;100.00
8318;BME280;4196;48.926;8.964;2022-10-28T07:45:20;99721.53;;;12.81;100.00
8318;BME280;4196;48.926;8.964;2022-10-28T07:48:08;99699.03;;;12.80;100.00
8318;BME280;4196;48.926;8.964;2022-10-28T07:50:54;99728.44;;;12.96;100.00
8318;BME280;4196;48.926;8.964;2022-10-28T07:53:40;99741.47;;;13.08;100.00
8318;BME280;4196;48.926;8.964;2022-10-28T07:56:27;99729.34;;;12.93;100.00
8318;BME280;4196;48.926;8.964;2022-10-28T07:59:14;99707.69;;;12.87;100.00
8318;BME280;4196;48.926;8.964;2022-10-28T08:02:01;99749.22;;;13.14;100.00
8318;BME280;4196;48.926;8.964;2022-10-28T08:04:48;99719.78;;;13.06;100.00
8318;BME280;4196;48.926;8.964;2022-10-28T08:07:34;99743.19;;;13.26;100.00
8318;BME280;4196;48.926;8.964;2022-10-28T08:10:25;99748.31;;;13.46;100.00
8318;BME280;4196;48.926;8.964;2022-10-28T08:13:11;99727.50;;;13.40;100.00
8318;BME280;4196;48.926;8.964;2022-10-28T08:15:58;99734.41;;;13.56;100.00
8318;BME280;4196;48.926;8.964;2022-10-28T08:18:45;99719.72;;;13.44;100.00
8318;BME280;4196;48.926;8.964;2022-10-28T08:21:31;99725.69;;;13.62;100.00
8318;BME280;4196;48.926;8.964;2022-10-28T08:24:18;99700.63;;;13.45;100.00
8318;BME280;4196;48.926;8.964;2022-10-28T08:27:04;99726.56;;;13.70;100.00
8318;BME280;4196;48.926;8.964;2022-10-28T08:29:51;99749.91;;;13.81;100.00
8318;BME280;4196;48.926;8.964;2022-10-28T08:32:38;99756.88;;;13.72;100.00
8318;BME280;4196;48.926;8.964;2022-10-28T08:35:25;99750.75;;;13.86;100.00
8318;BME280;4196;48.926;8.964;2022-10-28T08:38:11;99754.25;;;13.82;100.00
8318;BME280;4196;48.926;8.964;2022-10-28T08:49:55;99735.06;;;14.01;100.00
8318;BME280;4196;48.926;8.964;2022-10-28T08:53:11;99760.09;;;14.26;100.00
8318;BME280;4196;48.926;8.964;2022-10-28T08:56:08;99774.81;;;14.34;100.00
8318;BME280;4196;48.926;8.964;2022-10-28T08:59:02;99741.81;;;14.33;100.00
8318;BME280;4196;48.926;8.964;2022-10-28T09:01:53;99683.00;;;13.95;100.00
8318;BME280;4196;48.926;8.964;2022-10-28T09:04:43;99698.47;;;14.19;100.00
8318;BME280;4196;48.926;8.964;2022-10-28T09:07:32;99715.84;;;14.17;100.00
8318;BME280;4196;48.926;8.964;2022-10-28T09:19:44;99745.09;;;14.62;100.00
8318;BME280;4196;48.926;8.964;2022-10-28T09:22:38;99738.06;;;14.73;100.00
8318;BME280;4196;48.926;8.964;2022-10-28T09:25:49;99693.81;;;14.61;100.00
8318;BME280;4196;48.926;8.964;2022-10-28T09:29:07;99730.09;;;14.87;100.00
8318;BME280;4196;48.926;8.964;2022-10-28T09:35:07;99711.63;;;15.09;100.00
8318;BME280;4196;48.926;8.964;2022-10-28T09:38:06;99741.66;;;15.45;100.00
8318;BME280;4196;48.926;8.964;2022-10-28T09:41:02;99705.91;;;15.53;100.00
8318;BME280;4196;48.926;8.964;2022-10-28T09:43:56;99714.59;;;15.55;100.00
8318;BME280;4196;48.926;8.964;2022-10-28T09:46:47;99720.50;;;15.73;100.00
8318;BME280;4196;48.926;8.964;2022-10-28T09:49:36;99714.88;;;16.02;100.00
8318;BME280;4196;48.926;8.964;2022-10-28T09:52:39;99704.63;;;15.88;100.00
8318;BME280;4196;48.926;8.964;2022-10-28T09:55:28;99702.53;;;16.11;100.00
8318;BME280;4196;48.926;8.964;2022-10-28T09:58:16;99691.16;;;16.15;100.00
8318;BME280;4196;48.926;8.964;2022-10-28T10:01:03;99732.44;;;16.49;100.00
8318;BME280;4196;48.926;8.964;2022-10-28T10:03:50;99733.13;;;16.60;100.00
8318;BME280;4196;48.926;8.964;2022-10-28T10:06:38;99703.31;;;16.71;100.00
8318;BME280;4196;48.926;8.964;2022-10-28T10:09:30;99744.19;;;16.79;100.00
8318;BME280;4196;48.926;8.964;2022-10-28T10:12:17;99726.69;;;16.83;100.00
8318;BME280;4196;48.926;8.964;2022-10-28T10:15:05;99708.50;;;16.77;100.00
8318;BME280;4196;48.926;8.964;2022-10-28T10:17:53;99663.44;;;16.59;100.00
8318;BME280;4196;48.926;8.964;2022-10-28T10:20:50;99702.75;;;16.53;100.00
8318;BME280;4196;48.926;8.964;2022-10-28T10:23:37;99670.50;;;16.54;100.00
8318;BME280;4196;48.926;8.964;2022-10-28T10:26:30;99720.72;;;16.73;100.00
8318;BME280;4196;48.926;8.964;2022-10-28T10:29:18;99726.25;;;17.07;100.00
8318;BME280;4196;48.926;8.964;2022-10-28T10:32:12;99718.28;;;17.13;100.00
8318;BME280;4196;48.926;8.964;2022-10-28T10:35:03;99701.78;;;17.08;100.00
8318;BME280;4196;48.926;8.964;2022-10-28T10:37:52;99726.69;;;17.29;100.00
8318;BME280;4196;48.926;8.964;2022-10-28T10:40:49;99699.13;;;17.13;100.00
8318;BME280;4196;48.926;8.964;2022-10-28T10:43:35;99725.75;;;17.35;100.00
8318;BME280;4196;48.926;8.964;2022-10-28T10:46:21;99734.94;;;17.54;100.00
8318;BME280;4196;48.926;8.964;2022-10-28T10:49:14;99729.50;;;17.65;100.00
8318;BME280;4196;48.926;8.964;2022-10-28T10:54:59;99702.66;;;17.52;100.00
8318;BME280;4196;48.926;8.964;2022-10-28T10:57:47;99701.59;;;17.62;100.00
8318;BME280;4196;48.926;8.964;2022-10-28T11:00:43;99677.44;;;17.48;100.00
8318;BME280;4196;48.926;8.964;2022-10-28T11:03:34;99700.50;;;17.76;100.00
8318;BME280;4196;48.926;8.964;2022-10-28T11:06:25;99699.19;;;17.95;100.00
8318;BME280;4196;48.926;8.964;2022-10-28T11:09:22;99696.25;;;18.09;100.00
8318;BME280;4196;48.926;8.964;2022-10-28T11:12:30;99708.84;;;18.30;100.00
8318;BME280;4196;48.926;8.964;2022-10-28T11:15:28;99678.69;;;18.13;100.00
8318;BME280;4196;48.926;8.964;2022-10-28T11:18:16;99685.53;;;18.18;100.00
8318;BME280;4196;48.926;8.964;2022-10-28T11:37:14;99665.88;;;18.70;100.00
8318;BME280;4196;48.926;8.964;2022-10-28T11:43:18;99683.69;;;18.93;100.00
8318;BME280;4196;48.926;8.964;2022-10-28T12:14:21;99635.66;;;20.36;100.00
8318;BME280;4196;48.926;8.964;2022-10-28T12:20:25;99637.09;;;20.96;100.00
8318;BME280;4196;48.926;8.964;2022-10-28T12:23:19;99630.22;;;21.16;99.68
8318;BME280;4196;48.926;8.964;2022-10-28T12:26:10;99633.81;;;21.38;98.67
8318;BME280;4196;48.926;8.964;2022-10-28T12:29:01;99620.97;;;21.53;94.27
8318;BME280;4196;48.926;8.964;2022-10-28T12:32:04;99606.41;;;21.66;92.22
8318;BME280;4196;48.926;8.964;2022-10-28T12:41:05;99623.88;;;22.14;88.57
8318;BME280;4196;48.926;8.964;2022-10-28T12:44:31;99618.78;;;22.08;85.50
8318;BME280;4196;48.926;8.964;2022-10-28T12:53:21;99584.94;;;21.75;84.40
8318;BME280;4196;48.926;8.964;2022-10-28T12:56:17;99616.47;;;22.00;84.83
8318;BME280;4196;48.926;8.964;2022-10-28T12:59:31;99617.94;;;22.07;91.07
8318;BME280;4196;48.926;8.964;2022-10-28T13:02:27;99568.59;;;21.89;84.90
8318;BME280;4196;48.926;8.964;2022-10-28T13:05:38;99609.84;;;22.12;88.61
8318;BME280;4196;48.926;8.964;2022-10-28T13:15:00;99612.06;;;22.01;91.75
8318;BME280;4196;48.926;8.964;2022-10-28T13:24:13;99608.25;;;22.30;92.80
8318;BME280;4196;48.926;8.964;2022-10-28T13:27:02;99598.19;;;22.39;89.80
8318;BME280;4196;48.926;8.964;2022-10-28T13:29:53;99558.63;;;22.38;88.62
8318;BME280;4196;48.926;8.964;2022-10-28T13:32:41;99576.28;;;22.58;92.05
8318;BME280;4196;48.926;8.964;2022-10-28T13:35:29;99577.50;;;22.70;91.13
8318;BME280;4196;48.926;8.964;2022-10-28T13:38:21;99556.66;;;22.63;85.97
8318;BME280;4196;48.926;8.964;2022-10-28T13:41:18;99603.66;;;22.96;86.57
8318;BME280;4196;48.926;8.964;2022-10-28T13:44:23;99605.63;;;22.91;88.54
8318;BME280;4196;48.926;8.964;2022-10-28T13:56:35;99594.06;;;22.53;91.32
8318;BME280;4196;48.926;8.964;2022-10-28T13:59:29;99599.75;;;22.43;95.26
8318;BME280;4196;48.926;8.964;2022-10-28T14:08:30;99598.66;;;22.05;100.00
8318;BME280;4196;48.926;8.964;2022-10-28T14:11:25;99609.72;;;21.93;100.00
8318;BME280;4196;48.926;8.964;2022-10-28T14:14:15;99585.44;;;21.85;100.00
8318;BME280;4196;48.926;8.964;2022-10-28T14:17:02;99582.09;;;21.81;100.00
8318;BME280;4196;48.926;8.964;2022-10-28T14:19:50;99617.59;;;21.94;100.00
8318;BME280;4196;48.926;8.964;2022-10-28T14:22:37;99570.41;;;21.65;100.00
8318;BME280;4196;48.926;8.964;2022-10-28T14:49:02;99601.75;;;21.02;100.00
8318;BME280;4196;48.926;8.964;2022-10-28T14:51:49;99632.22;;;21.09;100.00
8318;BME280;4196;48.926;8.964;2022-10-28T14:54:45;99625.97;;;20.88;100.00
8318;BME280;4196;48.926;8.964;2022-10-28T14:57:33;99601.00;;;20.75;100.00
8318;BME280;4196;48.926;8.964;2022-10-28T15:00:22;99619.16;;;20.83;100.00
8318;BME280;4196;48.926;8.964;2022-10-28T15:03:11;99602.09;;;20.69;100.00
8318;BME280;4196;48.926;8.964;2022-10-28T15:06:21;99601.53;;;20.60;100.00
8318;BME280;4196;48.926;8.964;2022-10-28T15:09:21;99569.16;;;20.31;100.00
8318;BME280;4196;48.926;8.964;2022-10-28T15:12:13;99594.44;;;20.35;100.00
8318;BME280;4196;48.926;8.964;2022-10-28T15:15:01;99589.63;;;20.23;100.00
8318;BME280;4196;48.926;8.964;2022-10-28T15:17:48;99598.44;;;20.22;100.00
8318;BME280;4196;48.926;8.964;2022-10-28T15:20:35;99591.91;;;20.07;100.00
8318;BME280;4196;48.926;8.964;2022-10-28T15:23:22;99591.25;;;20.00;100.00
8318;BME280;4196;48.926;8.964;2022-10-28T15:26:15;99591.34;;;19.97;100.00
8318;BME280;4196;48.926;8.964;2022-10-28T15:29:02;99558.88;;;19.72;100.00
8318;BME280;4196;48.926;8.964;2022-10-28T15:32:22;99602.13;;;19.88;100.00
8318;BME280;4196;48.926;8.964;2022-10-28T15:38:25;99593.97;;;19.69;100.00
8318;BME280;4196;48.926;8.964;2022-10-28T15:44:23;99546.59;;;19.15;100.00
8318;BME280;4196;48.926;8.964;2022-10-28T15:47:31;99591.78;;;19.26;100.00
8318;BME280;4196;48.926;8.964;2022-10-28T15:53:30;99607.19;;;18.76;100.00
8318;BME280;4196;48.926;8.964;2022-10-28T15:59:22;99565.72;;;18.23;100.00
8318;BME280;4196;48.926;8.964;2022-10-28T16:02:41;99602.16;;;18.34;100.00
8318;BME280;4196;48.926;8.964;2022-10-28T16:08:38;99607.34;;;18.00;100.00
8318;BME280;4196;48.926;8.964;2022-10-28T16:11:24;99567.25;;;17.59;100.00
8318;BME280;4196;48.926;8.964;2022-10-28T16:14:35;99605.50;;;17.66;100.00
8318;BME280;4196;48.926;8.964;2022-10-28T16:17:35;99581.72;;;17.36;100.00
8318;BME280;4196;48.926;8.964;2022-10-28T16:20:29;99523.50;;;16.86;100.00
8318;BME280;4196;48.926;8.964;2022-10-28T16:23:16;99594.41;;;17.14;100.00
8318;BME280;4196;48.926;8.964;2022-10-28T16:26:04;99554.19;;;16.77;100.00
8318;BME280;4196;48.926;8.964;2022-10-28T16:28:51;99590.44;;;16.95;100.00
8318;BME280;4196;48.926;8.964;2022-10-28T16:31:39;99626.69;;;17.13;100.00
8318;BME280;4196;48.926;8.964;2022-10-28T16:34:26;99617.34;;;17.02;100.00
8318;BME280;4196;48.926;8.964;2022-10-28T16:37:20;99645.16;;;17.06;100.00
8318;BME280;4196;48.926;8.964;2022-10-28T16:40:07;99628.78;;;16.96;100.00
8318;BME280;4196;48.926;8.964;2022-10-28T16:43:15;99651.66;;;16.85;100.00
8318;BME280;4196;48.926;8.964;2022-10-28T16:46:02;99629.44;;;16.59;100.00
8318;BME280;4196;48.926;8.964;2022-10-28T16:48:49;99612.44;;;16.34;100.00
8318;BME280;4196;48.926;8.964;2022-10-28T16:51:35;99650.63;;;16.44;100.00
8318;BME280;4196;48.926;8.964;2022-10-28T16:54:22;99620.56;;;16.18;100.00
8318;BME280;4196;48.926;8.964;2022-10-28T16:57:08;99630.06;;;16.23;100.00
8318;BME280;4196;48.926;8.964;2022-10-28T17:05:19;99649.50;;;16.06;100.00
8318;BME280;4196;48.926;8.964;2022-10-28T17:08:31;99640.09;;;15.94;100.00
8318;BME280;4196;48.926;8.964;2022-10-28T17:25:32;99518.38;;;14.59;100.00
8318;BME280;4196;48.926;8.964;2022-10-28T17:28:19;99660.84;;;15.39;100.00
8318;BME280;4196;48.926;8.964;2022-10-28T17:31:07;99622.97;;;15.07;100.00
8318;BME280;4196;48.926;8.964;2022-10-28T17:33:54;99513.41;;;14.32;100.00
8318;BME280;4196;48.926;8.964;2022-10-28T17:36:40;99617.19;;;14.79;100.00
8318;BME280;4196;48.926;8.964;2022-10-28T17:39:27;99608.59;;;14.71;100.00
8318;BME280;4196;48.926;8.964;2022-10-28T17:42:14;99670.84;;;15.02;100.00
8318;BME280;4196;48.926;8.964;2022-10-28T17:45:00;99590.56;;;14.48;100.00
8318;BME280;4196;48.926;8.964;2022-10-28T17:47:47;99561.31;;;14.17;100.00
8318;BME280;4196;48.926;8.964;2022-10-28T17:50:33;99658.03;;;14.82;100.00
8318;BME280;4196;48.926;8.964;2022-10-28T17:53:20;99638.19;;;14.65;100.00
8318;BME280;4196;48.926;8.964;2022-10-28T17:56:07;99678.88;;;14.82;100.00
8318;BME280;4196;48.926;8.964;2022-10-28T17:58:54;99557.13;;;14.00;100.00
8318;BME280;4196;48.926;8.964;2022-10-28T18:01:41;99605.50;;;14.29;100.00
8318;BME280;4196;48.926;8.964;2022-10-28T18:04:28;99558.03;;;13.98;100.00
8318;BME280;4196;48.926;8.964;2022-10-28T18:07:15;99649.63;;;14.52;100.00
8318;BME280;4196;48.926;8.964;2022-10-28T18:10:02;99570.09;;;14.05;100.00
8318;BME280;4196;48.926;8.964;2022-10-28T18:12:49;99590.09;;;14.05;100.00
8318;BME280;4196;48.926;8.964;2022-10-28T18:15:36;99590.94;;;14.05;100.00
8318;BME280;4196;48.926;8.964;2022-10-28T18:18:26;99678.25;;;14.54;100.00
8318;BME280;4196;48.926;8.964;2022-10-28T18:21:13;99616.94;;;14.14;100.00
8318;BME280;4196;48.926;8.964;2022-10-28T18:23:59;99705.19;;;14.56;100.00
8318;BME280;4196;48.926;8.964;2022-10-28T18:26:52;99677.50;;;14.38;100.00
8318;BME280;4196;48.926;8.964;2022-10-28T18:29:40;99592.88;;;13.82;100.00
8318;BME280;4196;48.926;8.964;2022-10-28T18:32:26;99613.59;;;13.94;100.00
8318;BME280;4196;48.926;8.964;2022-10-28T18:35:12;99604.13;;;13.84;100.00
8318;BME280;4196;48.926;8.964;2022-10-28T18:37:59;99640.44;;;14.02;100.00
8318;BME280;4196;48.926;8.964;2022-10-28T18:40:46;99707.03;;;14.37;100.00
8318;BME280;4196;48.926;8.964;2022-10-28T18:43:33;99658.66;;;14.02;100.00
8318;BME280;4196;48.926;8.964;2022-10-28T18:46:19;99572.28;;;13.48;100.00